Tiempo atmosférico en la estación meteorológica de Castejon De Valdejasa, Zaragoza (442 m.)



Fecha
DESCASC
Temp. máxima en grados centígrados (hora)
DESCASC
Temp. mínima en grados centígrados (hora)
DESCASC
Temp. media en grados centígrados
DESCASC
Racha de viento máxima en m/sg (hora)
DESCASC
Velocidad máxima media en intervalos de 10 minutos(hora)
DESCASC
Precipitaciones diarias en mm
DESCASC
Precipitaciones de 00:00 a 06:00 en mm
DESCASC
Precipitaciones de 06:00 a 12:00 en mm
DESCASC
Precipitaciones de 12:00 a 18:00 en mm
DESCASC
Precipitaciones de 18:00 a 24:00 en mm
DESCASC
20-06-2018 31.7 (17:40) 18.3 (07:10) 25 8.89 (14:30) 5.56 (10:40) 0 0 0 0 0
19-06-2018 29.6 (18:20) 12.5 (06:50) 21.1 9.17 (00:50) 5.83 (09:00) 0 0 0 0 0
18-06-2018 24.9 (14:20) 12.2 (06:40) 18.5 14.17 (01:00) 9.17 (00:20) 0 0 0 0 0
17-06-2018 23.5 (17:50) 10.6 (07:20) 17.1 15.83 (21:40) 10.83 (21:30) 0 0 0 0 0
16-06-2018 23.8 (15:50) 12.3 (07:20) 18 12.22 (16:30) 8.33 (16:00) 0 0 0 0 0
15-06-2018 24.9 (17:30) 10.2 (06:20) 17.5 13.61 (18:50) 9.17 (18:00) 0 0 0 0 0
14-06-2018 21.9 (15:20) 8.9 (00:00) 15.4 14.72 (17:10) 11.11 (17:00) 0 0 0 0 0
13-06-2018 19.8 (15:20) 13 (02:40) 16.4 17.5 (12:50) 10.56 (16:30) 0 0 0 0 0
12-06-2018 19.1 (16:50) 11.3 (07:20) 15.2 15.28 (14:40) 10 (15:00) 0 0 0 0 0
11-06-2018 21.7 (15:00) 11.1 (05:50) 16.4 10 (19:50) 7.22 (20:00) 0 0 0 0 0
10-06-2018 20.4 (14:50) 13.2 (00:00) 16.8 8.61 (18:00) 6.67 (18:00) 1.6 1 0 0.6 0
09-06-2018 24 (13:10) 14 (00:00) 19 11.67 (14:40) 8.33 (11:30) 6.4 0 0 0.8 5.6
08-06-2018 22.8 (16:30) 14.6 (00:00) 18.7 10.28 (16:40) 5.56 (16:50) 0 0 0 0 0
07-06-2018 23.7 (17:20) 11 (00:00) 17.4 8.89 (13:30) 5.83 (14:40) 0 0 0 0 0
06-06-2018 18.6 (17:30) 11.1 (00:00) 14.9 8.33 (14:40) 4.72 (14:40) 0.8 0 0.6 0 0.2
05-06-2018 21.4 (17:20) 12.8 (00:00) 17.1 9.72 (12:10) 5.83 (18:00) 0 0 0 0 0
04-06-2018 22.9 (16:30) 14.1 (00:00) 18.5 10.28 (15:10) 7.5 (15:10) 0 0 0 0 0
03-06-2018 23.7 (15:00) 14.2 (00:00) 19 8.06 (10:20) 5.56 (03:10) 1 0 0 0 1
02-06-2018 24.8 (18:30) 13.1 (00:00) 18.9 12.78 (20:30) 9.17 (20:20) 0 0 0 0 0
01-06-2018 24.9 (15:00) 14 (00:00) 19.4 10 (12:40) 6.67 (14:00) 0 0 0 0 0
31-05-2018 22.6 (18:30) 11.9 (03:40) 17.3 6.39 (13:40) 3.89 (11:40) 0 0 0 0 0
30-05-2018 17.2 (19:30) 12.5 (00:00) 14.9 9.44 (16:20) 6.94 (16:20) 16.6 0.2 1.8 14.6 0
29-05-2018 21.6 (17:50) 13.4 (00:00) 17.5 10.28 (20:20) 7.22 (20:30) 2.4 0 0 0 2.4
28-05-2018 18.7 (16:30) 13.4 (00:00) 16.1 8.33 (17:50) 5.83 (17:50) 17.2 11.2 3.6 2 0.4
27-05-2018 25.2 (17:30) 13.4 (00:00) 19.3 10 (15:00) 5.28 (22:30) 0 0 0 0 0
26-05-2018 22.5 (15:30) 14.1 (00:00) 18.3 13.33 (16:50) 9.72 (17:00) 1 0 1 0 0
25-05-2018 24.4 (15:40) 13.1 (00:00) 18.8 15.28 (02:30) 10.28 (02:20) 2.8 0 2.8 0 0
24-05-2018 25.6 (16:10) 14.9 (00:00) 20.3 11.67 (23:30) 8.06 (23:50) 0.4 0.4 0 0 0
23-05-2018 25.6 (17:00) 11.2 (00:00) 18.4 8.33 (23:40) 5.56 (23:40) 0.2 0 0 0 0.2
22-05-2018 23.6 (18:10) 9.9 (07:00) 16.8 9.17 (17:10) 5.83 (15:10) 0 0 0 0 0

Gráficas

Temp. máximas Temp. mínimas Temp. medias Precipitaciones Rachas de viento máximas Velocidades máximas media en intervalos de 10 minutos

Datos horarios

Fecha y hora oficial Temperatura (ºC) Velocidad del viento (km/h) Dirección del viento Racha (km/h) Dirección de racha Precipitación (mm) Presión (hPa) Tendencia (hPa) Humedad (%)
2018-06-20 23:00:00 24.3 11 Nordeste 14 Nordeste 0 -- -- 43
2018-06-20 22:00:00 26.2 10 Este 20 Este 0 -- -- 42
2018-06-20 21:00:00 29.3 16 Este 22 Este 0 -- -- 35
2018-06-20 20:00:00 30.8 9 Sudeste 24 Este 0 -- -- 33
2018-06-20 19:00:00 31.3 13 Este 28 Este 0 -- -- 32
2018-06-20 18:00:00 31.6 14 Sudeste 27 Este 0 -- -- 33
2018-06-20 17:00:00 31.4 13 Sudeste 31 Este 0 -- -- 33
2018-06-20 16:00:00 30.9 9 Sudeste 28 Este 0 -- -- 36
2018-06-20 15:00:00 30.3 9 Sudeste 32 Este 0 -- -- 40
2018-06-20 14:00:00 29.8 19 Este 29 Sudeste 0 -- -- 40
2018-06-20 13:00:00 29 16 Este 29 Este 0 -- -- 43
2018-06-20 12:00:00 27.8 13 Sudeste 29 Este 0 -- -- 44
2018-06-20 11:00:00 26.2 18 Este 31 Este 0 -- -- 48
2018-06-20 10:00:00 24.5 18 Este 26 Este 0 -- -- 53
2018-06-20 09:00:00 22.4 16 Este 23 Este 0 -- -- 60
2018-06-20 08:00:00 20 16 Este 20 Este 0 -- -- 69
2018-06-20 07:00:00 18.4 14 Este 23 Este 0 -- -- 75
2018-06-20 06:00:00 18.9 17 Este 20 Este 0 -- -- 73
2018-06-20 05:00:00 19.2 15 Este 21 Este 0 -- -- 71
2018-06-20 04:00:00 19.7 15 Este 20 Este 0 -- -- 66
2018-06-20 03:00:00 20.4 14 Este 17 Este 0 -- -- 64
2018-06-20 02:00:00 21.2 14 Este 17 Este 0 -- -- 59
2018-06-20 01:00:00 21.1 11 Nordeste 14 Nordeste 0 -- -- 58
2018-06-20 00:00:00 21.2 11 Este 15 Nordeste 0 -- -- 57
2018-06-19 23:00:00 21.3 9 Nordeste 13 Nordeste 0 -- -- 53
2018-06-19 22:00:00 24.3 9 Este 12 Este 0 -- -- 46
2018-06-19 21:00:00 27.4 8 Este 15 Este 0 -- -- 39
2018-06-19 20:00:00 28.6 6 Nordeste 12 Este 0 -- -- 35
2018-06-19 19:00:00 29.2 6 Noroeste 16 Este 0 -- -- 37
2018-06-19 18:00:00 29 7 Noroeste 19 Noroeste 0 -- -- 36
2018-06-19 17:00:00 28.4 8 Oeste 24 Oeste 0 -- -- 37
2018-06-19 16:00:00 27.9 10 Noroeste 23 Oeste 0 -- -- 40
2018-06-19 15:00:00 26.7 15 Oeste 31 Oeste 0 -- -- 41
2018-06-19 14:00:00 24.4 10 Sudoeste 19 Oeste 0 -- -- 48
2018-06-19 13:00:00 22.5 11 Oeste 23 Oeste 0 -- -- 54
2018-06-19 12:00:00 21.2 15 Oeste 22 Sudoeste 0 -- -- 60
2018-06-19 11:00:00 19.2 14 Oeste 24 Oeste 0 -- -- 65
2018-06-19 10:00:00 17 16 Oeste 29 Oeste 0 -- -- 74
2018-06-19 09:00:00 15.6 21 Oeste 31 Oeste 0 -- -- 80
2018-06-19 08:00:00 13.5 10 Oeste 15 Oeste 0 -- -- 90
2018-06-19 07:00:00 12.5 9 Oeste 14 Oeste 0 -- -- 91
2018-06-19 06:00:00 12.9 10 Oeste 15 Oeste 0 -- -- 91
2018-06-19 05:00:00 12.9 11 Oeste 21 Oeste 0 -- -- 90
2018-06-19 04:00:00 13.2 12 Oeste 30 Oeste 0 -- -- 89
2018-06-19 03:00:00 14.5 16 Oeste 27 Oeste 0 -- -- 85
2018-06-19 02:00:00 14.9 19 Oeste 33 Oeste 0 -- -- 83
2018-06-19 01:00:00 15.1 19 Oeste 33 Oeste 0 -- -- 83
2018-06-19 00:00:00 15.4 17 Oeste 35 Oeste 0 -- -- 82
2018-06-18 23:00:00 16.3 24 Oeste 39 Oeste 0 -- -- 77
2018-06-18 22:00:00 17.7 26 Oeste 48 Oeste 0 -- -- 70
2018-06-18 21:00:00 19.9 26 Oeste 46 Oeste 0 -- -- 60
2018-06-18 20:00:00 21.6 28 Oeste 48 Oeste 0 -- -- 54
2018-06-18 19:00:00 23.1 30 Oeste 45 Oeste 0 -- -- 50
2018-06-18 18:00:00 24.2 26 Oeste 45 Noroeste 0 -- -- 49
2018-06-18 17:00:00 24.1 28 Oeste 51 Oeste 0 -- -- 51
2018-06-18 16:00:00 24.1 29 Oeste 46 Oeste 0 -- -- 51
2018-06-18 15:00:00 24.6 26 Oeste 49 Oeste 0 -- -- 47
2018-06-18 14:00:00 24 23 Oeste 44 Oeste 0 -- -- 49
2018-06-18 13:00:00 23.4 23 Noroeste 44 Noroeste 0 -- -- 50
2018-06-18 12:00:00 22 30 Oeste 48 Oeste 0 -- -- 54
2018-06-18 11:00:00 20 24 Oeste 44 Oeste 0 -- -- 58
2018-06-18 10:00:00 17.8 24 Oeste 39 Oeste 0 -- -- 63
2018-06-18 09:00:00 16.1 25 Oeste 37 Oeste 0 -- -- 64
2018-06-18 08:00:00 14.1 19 Oeste 31 Oeste 0 -- -- 65
2018-06-18 07:00:00 12.3 11 Oeste 21 Oeste 0 -- -- 67
2018-06-18 06:00:00 13.1 18 Oeste 31 Oeste 0 -- -- 64
2018-06-18 05:00:00 13.4 12 Oeste 32 Oeste 0 -- -- 63
2018-06-18 04:00:00 13.4 14 Oeste 32 Oeste 0 -- -- 63
2018-06-18 03:00:00 14.1 16 Oeste 35 Oeste 0 -- -- 59
2018-06-18 02:00:00 13.9 14 Oeste 48 Noroeste 0 -- -- 60
2018-06-18 01:00:00 14.8 32 Noroeste 51 Oeste 0 -- -- 54
2018-06-18 00:00:00 15.6 22 Noroeste 42 Oeste 0 -- -- 53
2018-06-17 23:00:00 16.5 21 Oeste 55 Noroeste 0 -- -- 52
2018-06-17 22:00:00 17.9 38 Noroeste 57 Noroeste 0 -- -- 49
2018-06-17 21:00:00 19.9 27 Noroeste 54 Oeste 0 -- -- 45
2018-06-17 20:00:00 21.7 24 Noroeste 49 Oeste 0 -- -- 44
2018-06-17 19:00:00 23.2 23 Oeste 45 Oeste 0 -- -- 40
2018-06-17 18:00:00 23.5 29 Oeste 49 Oeste 0 -- -- 40
2018-06-17 17:00:00 23.4 30 Oeste 50 Oeste 0 -- -- 43
2018-06-17 16:00:00 22.4 29 Oeste 52 Noroeste 0 -- -- 46
2018-06-17 15:00:00 21.6 27 Noroeste 56 Oeste 0 -- -- 50
2018-06-17 14:00:00 21.2 29 Oeste 49 Oeste 0 -- -- 54
2018-06-17 13:00:00 18.7 31 Oeste 51 Oeste 0 -- -- 63
2018-06-17 12:00:00 19.1 28 Oeste 49 Oeste 0 -- -- 63
2018-06-17 11:00:00 17.6 28 Oeste 43 Oeste 0 -- -- 67
2018-06-17 10:00:00 15.8 21 Oeste 40 Noroeste 0 -- -- 71
2018-06-17 09:00:00 13.9 20 Oeste 36 Oeste 0 -- -- 72
2018-06-17 08:00:00 11.8 17 Oeste 30 Oeste 0 -- -- 83
2018-06-17 07:00:00 10.7 17 Oeste 26 Sudoeste 0 -- -- 84
2018-06-17 06:00:00 11.2 16 Oeste 33 Oeste 0 -- -- 81
2018-06-17 05:00:00 11.5 22 Oeste 33 Oeste 0 -- -- 81
2018-06-17 04:00:00 11.9 20 Oeste 37 Oeste 0 -- -- 79
2018-06-17 03:00:00 12.5 21 Oeste 41 Oeste 0 -- -- 76
2018-06-17 02:00:00 13.3 24 Oeste 50 Oeste 0 -- -- 70
2018-06-17 01:00:00 14 30 Noroeste 48 Oeste 0 -- -- 67
2018-06-17 00:00:00 14.7 27 Noroeste 42 Noroeste 0 -- -- 65
2018-06-16 23:00:00 15 17 Oeste 39 Noroeste 0 -- -- 68
2018-06-16 22:00:00 17.3 23 Noroeste 37 Noroeste 0 -- -- 58
2018-06-16 21:00:00 20 18 Noroeste 41 Noroeste 0 -- -- 52
2018-06-16 20:00:00 21.5 19 Oeste 41 Noroeste 0 -- -- 53
2018-06-16 19:00:00 23 25 Oeste 40 Noroeste 0 -- -- 48
2018-06-16 18:00:00 22.5 25 Oeste 41 Oeste 0 -- -- 47
2018-06-16 17:00:00 23.5 26 Oeste 44 Oeste 0 -- -- 45
2018-06-16 16:00:00 23.4 30 Oeste 42 Oeste 0 -- -- 50
2018-06-16 15:00:00 23 23 Oeste 43 Oeste 0 -- -- 51
2018-06-16 14:00:00 22.6 24 Oeste 35 Oeste 0 -- -- 56
2018-06-16 13:00:00 21.7 21 Oeste 41 Oeste 0 -- -- 58
2018-06-16 12:00:00 20 24 Oeste 40 Oeste 0 -- -- 63
2018-06-16 11:00:00 18.7 24 Oeste 32 Oeste 0 -- -- 69
2018-06-16 10:00:00 17.3 18 Oeste 30 Oeste 0 -- -- 76
2018-06-16 09:00:00 15.1 14 Oeste 25 Oeste 0 -- -- 85
2018-06-16 08:00:00 13.2 11 Oeste 17 Oeste 0 -- -- 92
2018-06-16 07:00:00 12.5 10 Oeste 16 Oeste 0 -- -- 93
2018-06-16 06:00:00 13 9 Oeste 20 Oeste 0 -- -- 92
2018-06-16 05:00:00 13 10 Oeste 23 Oeste 0 -- -- 93
2018-06-16 04:00:00 13.6 13 Oeste 27 Oeste 0 -- -- 89
2018-06-16 03:00:00 13.3 13 Oeste 30 Oeste 0 -- -- 92
2018-06-16 02:00:00 14.1 16 Oeste 31 Oeste 0 -- -- 88
2018-06-16 01:00:00 14.7 20 Oeste 36 Noroeste 0 -- -- 86
2018-06-16 00:00:00 15 21 Oeste 46 Oeste 0 -- -- 84
2018-06-15 23:00:00 15.7 21 Oeste 45 Oeste 0 -- -- 80
2018-06-15 22:00:00 16.8 26 Oeste 44 Oeste 0 -- -- 76
2018-06-15 21:00:00 18.7 27 Noroeste 47 Oeste 0 -- -- 70
2018-06-15 20:00:00 21.3 24 Oeste 41 Oeste 0 -- -- 62
2018-06-15 19:00:00 23.6 21 Oeste 49 Oeste 0 -- -- 55
2018-06-15 18:00:00 24.3 33 Oeste 46 Oeste 0 -- -- 53
2018-06-15 17:00:00 24.8 26 Oeste 45 Oeste 0 -- -- 47
2018-06-15 16:00:00 24.3 23 Oeste 43 Oeste 0 -- -- 44
2018-06-15 15:00:00 23 23 Oeste 42 Oeste 0 -- -- 48
2018-06-15 14:00:00 21.7 19 Oeste 35 Oeste 0 -- -- 51
2018-06-15 13:00:00 20.4 23 Oeste 33 Oeste 0 -- -- 54
2018-06-15 12:00:00 19.5 20 Oeste 35 Oeste 0 -- -- 54
2018-06-15 11:00:00 17.8 16 Oeste 27 Oeste 0 -- -- 59
2018-06-15 10:00:00 15.8 18 Oeste 26 Oeste 0 -- -- 66
2018-06-15 09:00:00 13.8 17 Oeste 26 Oeste 0 -- -- 73
2018-06-15 08:00:00 11.1 9 Oeste 15 Oeste 0 -- -- 84
2018-06-15 07:00:00 10.2 6 Oeste 14 Oeste 0 -- -- 86
2018-06-15 06:00:00 10.4 10 Oeste 18 Oeste 0 -- -- 86
2018-06-15 05:00:00 10.5 10 Oeste 15 Noroeste 0 -- -- 86
2018-06-15 04:00:00 10.9 10 Oeste 17 Oeste 0 -- -- 85
2018-06-15 03:00:00 11.5 10 Oeste 21 Oeste 0 -- -- 84
2018-06-15 02:00:00 13.1 16 Oeste 31 Noroeste 0 -- -- 77
2018-06-15 01:00:00 13.1 17 Oeste 32 Oeste 0 -- -- 80
2018-06-15 00:00:00 13.9 18 Oeste 37 Noroeste 0 -- -- 77
2018-06-14 23:00:00 14.7 16 Noroeste 42 Noroeste 0 -- -- 74
2018-06-14 22:00:00 15.6 16 Oeste 40 Oeste 0 -- -- 70
2018-06-14 21:00:00 17.4 26 Oeste 43 Oeste 0 -- -- 65
2018-06-14 20:00:00 19.3 28 Oeste 45 Oeste 0 -- -- 56
2018-06-14 19:00:00 20.5 29 Oeste 48 Oeste 0 -- -- 55
2018-06-14 18:00:00 21.2 30 Oeste 53 Oeste 0 -- -- 52
2018-06-14 17:00:00 21.5 40 Oeste 51 Oeste 0 -- -- 52
2018-06-14 16:00:00 21.8 33 Oeste 48 Oeste 0 -- -- 49
2018-06-14 15:00:00 21.8 27 Oeste 44 Oeste 0 -- -- 50
2018-06-14 14:00:00 20.8 27 Oeste 45 Oeste 0 -- -- 52
2018-06-14 13:00:00 19.2 28 Oeste 44 Oeste 0 -- -- 58
2018-06-14 12:00:00 18.2 27 Oeste 45 Oeste 0 -- -- 62
2018-06-14 11:00:00 17 28 Oeste 41 Oeste 0 -- -- 66
2018-06-14 10:00:00 14.5 25 Oeste 37 Oeste 0 -- -- 74
2018-06-14 09:00:00 12.6 25 Oeste 39 Oeste 0 -- -- 79
2018-06-14 08:00:00 11.1 22 Oeste 30 Oeste 0 -- -- 87
2018-06-14 07:00:00 9.1 15 Oeste 21 Oeste 0 -- -- 92
2018-06-14 06:00:00 9.1 16 Oeste 23 Oeste 0 -- -- 92
2018-06-14 05:00:00 9.2 15 Oeste 25 Oeste 0 -- -- 91
2018-06-14 04:00:00 9.8 14 Oeste 27 Oeste 0 -- -- 90
2018-06-14 03:00:00 11.1 18 Oeste 33 Oeste 0 -- -- 85
2018-06-14 02:00:00 11.8 21 Oeste 39 Oeste 0 -- -- 82
2018-06-14 01:00:00 12.7 24 Oeste 41 Oeste 0 -- -- 79
2018-06-14 00:00:00 13 24 Noroeste 44 Oeste 0 -- -- 80
2018-06-13 23:00:00 13.4 19 Oeste 44 Noroeste 0 -- -- 77
2018-06-13 22:00:00 14.4 21 Oeste 33 Oeste 0 -- -- 73
2018-06-13 21:00:00 15.7 22 Noroeste 50 Noroeste 0 -- -- 68
2018-06-13 20:00:00 16.8 29 Noroeste 53 Noroeste 0 -- -- 64
2018-06-13 19:00:00 17.9 27 Noroeste 54 Noroeste 0 -- -- 61
2018-06-13 18:00:00 18.3 34 Noroeste 61 Noroeste 0 -- -- 59
2018-06-13 17:00:00 18.6 35 Noroeste 59 Noroeste 0 -- -- 58
2018-06-13 16:00:00 18.7 36 Noroeste 55 Noroeste 0 -- -- 59
2018-06-13 15:00:00 19.2 33 Noroeste 58 Oeste 0 -- -- 59
2018-06-13 14:00:00 18.5 34 Oeste 62 Oeste 0 -- -- 60
2018-06-13 13:00:00 17.3 33 Noroeste 63 Oeste 0 -- -- 67
2018-06-13 12:00:00 15.7 35 Oeste 60 Oeste 0 -- -- 71
2018-06-13 11:00:00 14.9 36 Oeste 54 Oeste 0 -- -- 74
2018-06-13 10:00:00 14.8 32 Oeste 52 Oeste 0 -- -- 74
2018-06-13 09:00:00 14 31 Oeste 53 Oeste 0 -- -- 76
2018-06-13 08:00:00 13.6 27 Oeste 45 Oeste 0 -- -- 76
2018-06-13 07:00:00 13.4 27 Oeste 46 Oeste 0 -- -- 76
2018-06-13 06:00:00 13.2 23 Oeste 45 Noroeste 0 -- -- 76
2018-06-13 05:00:00 13.1 24 Oeste 51 Oeste 0 -- -- 76
2018-06-13 04:00:00 13.3 29 Noroeste 45 Noroeste 0 -- -- 76
2018-06-13 03:00:00 13.1 27 Oeste 49 Oeste 0 -- -- 77
2018-06-13 02:00:00 13.2 26 Oeste 40 Oeste 0 -- -- 77
2018-06-13 01:00:00 13.9 23 Oeste 43 Oeste 0 -- -- 73
2018-06-13 00:00:00 14.5 22 Noroeste 44 Oeste 0 -- -- 68
2018-06-12 23:00:00 14.5 19 Oeste 45 Oeste 0 -- -- 68
2018-06-12 22:00:00 15 19 Noroeste 37 Noroeste 0 -- -- 66
2018-06-12 21:00:00 16 25 Noroeste 48 Noroeste 0 -- -- 62
2018-06-12 20:00:00 17 23 Noroeste 50 Noroeste 0 -- -- 60
2018-06-12 19:00:00 17.3 28 Noroeste 50 Noroeste 0 -- -- 59
2018-06-12 18:00:00 18.2 19 Noroeste 37 Noroeste 0 -- -- 59
2018-06-12 17:00:00 19.1 27 Oeste 50 Oeste 0 -- -- 57
2018-06-12 16:00:00 18.5 32 Oeste 51 Oeste 0 -- -- 59
2018-06-12 15:00:00 18.1 36 Oeste 55 Oeste 0 -- -- 61
2018-06-12 14:00:00 17.6 32 Oeste 53 Oeste 0 -- -- 65
2018-06-12 13:00:00 17.8 31 Oeste 46 Noroeste 0 -- -- 73
2018-06-12 12:00:00 15.4 16 Oeste 24 Oeste 0 -- -- 79
2018-06-12 11:00:00 14.9 11 Oeste 18 Oeste 0 -- -- 81
2018-06-12 10:00:00 14.5 11 Oeste 15 Oeste 0 -- -- 82
2018-06-12 09:00:00 13.9 6 Oeste 8 Oeste 0 -- -- 80
2018-06-12 08:00:00 12.5 3 Noroeste 7 Oeste 0 -- -- 83
2018-06-12 07:00:00 11.4 2 Oeste 8 Oeste 0 -- -- 86
2018-06-12 06:00:00 11.8 5 Noroeste 17 Oeste 0 -- -- 85
2018-06-12 05:00:00 12.5 7 Oeste 15 Oeste 0 -- -- 79
2018-06-12 04:00:00 12.8 8 Oeste 12 Oeste 0 -- -- 82
2018-06-12 03:00:00 13.1 6 Oeste 21 Oeste 0 -- -- 83
2018-06-12 02:00:00 13.9 9 Oeste 19 Oeste 0 -- -- 74
2018-06-12 01:00:00 15 12 Oeste 24 Noroeste 0 -- -- 69
2018-06-12 00:00:00 15.6 14 Noroeste 24 Oeste 0 -- -- 70
2018-06-11 23:00:00 15.8 14 Noroeste 22 Noroeste 0 -- -- 71
2018-06-11 22:00:00 16.1 7 Oeste 26 Oeste 0 -- -- 84
2018-06-11 21:00:00 18.1 17 Oeste 32 Oeste 0 -- -- 65
2018-06-11 20:00:00 19.5 26 Oeste 36 Oeste 0 -- -- 57
2018-06-11 19:00:00 18.6 15 Oeste 29 Oeste 0 -- -- 69
2018-06-11 18:00:00 19.2 17 Noroeste 30 Oeste 0 -- -- 64
2018-06-11 17:00:00 19 20 Oeste 26 Oeste 0 -- -- 63
2018-06-11 16:00:00 20.1 17 Oeste 36 Oeste 0 -- -- 54
2018-06-11 15:00:00 21.7 21 Oeste 32 Oeste 0 -- -- 55
2018-06-11 14:00:00 20.5 20 Oeste 32 Oeste 0 -- -- 58
2018-06-11 13:00:00 19.8 18 Oeste 31 Oeste 0 -- -- 63
2018-06-11 12:00:00 18.8 17 Oeste 32 Oeste 0 -- -- 64
2018-06-11 11:00:00 17.2 21 Oeste 29 Oeste 0 -- -- 73
2018-06-11 10:00:00 15.9 18 Oeste 26 Oeste 0 -- -- 82
2018-06-11 09:00:00 14.1 11 Oeste 18 Sudoeste 0 -- -- 90
2018-06-11 08:00:00 12.2 7 Noroeste 10 Oeste 0 -- -- 95
2018-06-11 07:00:00 11.6 4 Oeste 10 Noroeste 0 -- -- 94
2018-06-11 06:00:00 11.4 0 Calma 6 Oeste 0 -- -- 94
2018-06-11 05:00:00 11.8 3 Nordeste 8 Este 0 -- -- 92
2018-06-11 04:00:00 13 0 Calma 5 Noroeste 0 -- -- 90
2018-06-11 03:00:00 13.4 0 Calma 6 Este 0 -- -- 90
2018-06-11 02:00:00 13.3 4 Nordeste 9 Nordeste 0 -- -- 91
2018-06-11 01:00:00 14.1 4 Este 8 Este 0 -- -- 89
2018-06-11 00:00:00 14.5 4 Este 8 Nordeste 0 -- -- 87
2018-06-10 23:00:00 15.4 4 Norte 8 Este 0 -- -- 81
2018-06-10 22:00:00 16.2 3 Norte 9 Este 0 -- -- 77
2018-06-10 21:00:00 18.6 0 Calma 10 Este 0 -- -- 68
2018-06-10 20:00:00 17.7 8 Este 18 Este 0 -- -- 72
2018-06-10 19:00:00 17.6 14 Este 26 Este 0 -- -- 76
2018-06-10 18:00:00 16.4 24 Este 31 Este 0.2 -- -- 85
2018-06-10 17:00:00 16.5 15 Este 26 Este 0.4 -- -- 83
2018-06-10 16:00:00 19.2 10 Este 30 Sudeste 0 -- -- 70
2018-06-10 15:00:00 20.1 5 Oeste 14 Sudeste 0 -- -- 63
2018-06-10 14:00:00 18.2 8 Este 14 Este 0 -- -- 75
2018-06-10 13:00:00 17.8 11 Este 15 Este 0 -- -- 72
2018-06-10 12:00:00 17.1 5 Este 9 Este 0 -- -- 73
2018-06-10 11:00:00 15.8 0 Calma 8 Sudoeste 0 -- -- 76
2018-06-10 10:00:00 15.3 3 Sudeste 9 Sudeste 0 -- -- 82
2018-06-10 09:00:00 14.3 5 Nordeste 6 Nordeste 0 -- -- 90
2018-06-10 08:00:00 13.8 4 Nordeste 9 Nordeste 0 -- -- 90
2018-06-10 07:00:00 13.3 7 Este 10 Nordeste 0 -- -- 93
2018-06-10 06:00:00 13.3 7 Nordeste 11 Nordeste 0.2 -- -- 92
2018-06-10 05:00:00 13.5 7 Nordeste 14 Nordeste 0 -- -- 90
2018-06-10 04:00:00 13.7 8 Nordeste 10 Nordeste 0 -- -- 88
2018-06-10 03:00:00 14.1 7 Nordeste 10 Nordeste 0.2 -- -- 86
2018-06-10 02:00:00 14.5 5 Nordeste 13 Norte 0 -- -- 83
2018-06-10 01:00:00 14.2 4 Este 14 Norte 0.6 -- -- 91
2018-06-10 00:00:00 14.1 4 Este 13 Nordeste 2 -- -- 92
2018-06-09 23:00:00 14.7 4 Sudoeste 13 Nordeste 1.2 -- -- 86
2018-06-09 22:00:00 14.6 5 Norte 29 Oeste 2.2 -- -- 89
2018-06-09 21:00:00 17.2 3 Sudoeste 20 Este 0.2 -- -- 76
2018-06-09 20:00:00 18.3 9 Este 21 Sur 0 -- -- 72
2018-06-09 19:00:00 19.8 3 Sur 15 Oeste 0 -- -- 71
2018-06-09 18:00:00 19.9 3 Noroeste 9 Este 0 -- -- 74
2018-06-09 17:00:00 18.5 4 Nordeste 10 Oeste 0.2 -- -- 83
2018-06-09 16:00:00 18.1 5 Oeste 19 Oeste 0.6 -- -- 82
2018-06-09 15:00:00 18.8 16 Oeste 42 Oeste 0 -- -- 78
2018-06-09 14:00:00 23.5 26 Este 35 Este 0 -- -- 50
2018-06-09 13:00:00 23.8 24 Este 38 Este 0 -- -- 49
2018-06-09 12:00:00 23.3 24 Este 40 Este 0 -- -- 52
2018-06-09 11:00:00 21.7 13 Este 27 Este 0 -- -- 64
2018-06-09 10:00:00 21.2 13 Este 22 Este 0 -- -- 68
2018-06-09 09:00:00 18.4 14 Este 22 Este 0 -- -- 81
2018-06-09 08:00:00 17.3 7 Este 12 Este 0 -- -- 88
2018-06-09 07:00:00 16.8 6 Este 13 Nordeste 0 -- -- 87
2018-06-09 06:00:00 16.5 8 Nordeste 15 Este 0 -- -- 84
2018-06-09 05:00:00 16.4 10 Nordeste 12 Nordeste 0 -- -- 85
2018-06-09 04:00:00 17.2 5 Este 9 Nordeste 0 -- -- 83
2018-06-09 03:00:00 17.8 8 Nordeste 15 Este 0 -- -- 81
2018-06-09 02:00:00 18.1 9 Este 17 Este 0 -- -- 79
2018-06-09 01:00:00 18 11 Este 16 Este 0 -- -- 76
2018-06-09 00:00:00 18.3 7 Nordeste 13 Norte 0 -- -- 71
2018-06-08 23:00:00 19.1 10 Noroeste 27 Oeste 0 -- -- 65
2018-06-08 22:00:00 20.3 17 Este 22 Este 0 -- -- 63
2018-06-08 21:00:00 21.3 12 Este 21 Sudeste 0 -- -- 61
2018-06-08 20:00:00 22.4 11 Sudeste 24 Este 0 -- -- 57
2018-06-08 19:00:00 22.3 13 Sudeste 24 Sudeste 0 -- -- 57
2018-06-08 18:00:00 22.4 14 Sudeste 31 Sudeste 0 -- -- 54
2018-06-08 17:00:00 22.6 16 Sudeste 37 Este 0 -- -- 54
2018-06-08 16:00:00 22.4 13 Este 26 Este 0 -- -- 54
2018-06-08 15:00:00 21.4 15 Este 23 Este 0 -- -- 65
2018-06-08 14:00:00 21 13 Este 21 Este 0 -- -- 62
2018-06-08 13:00:00 20 9 Sudeste 20 Sudeste 0 -- -- 66
2018-06-08 12:00:00 20.9 13 Este 23 Este 0 -- -- 65
2018-06-08 11:00:00 20.4 14 Este 26 Este 0 -- -- 68
2018-06-08 10:00:00 17.5 15 Este 20 Este 0 -- -- 78
2018-06-08 09:00:00 17.1 15 Este 21 Este 0 -- -- 77
2018-06-08 08:00:00 16.2 16 Este 19 Este 0 -- -- 82
2018-06-08 07:00:00 14.6 11 Este 19 Este 0 -- -- 85
2018-06-08 06:00:00 15.1 12 Este 17 Nordeste 0 -- -- 83
2018-06-08 05:00:00 16.1 10 Este 14 Este 0 -- -- 78
2018-06-08 04:00:00 16.9 10 Este 14 Nordeste 0 -- -- 74
2018-06-08 03:00:00 16.3 10 Nordeste 13 Este 0 -- -- 73
2018-06-08 02:00:00 15.4 11 Nordeste 13 Nordeste 0 -- -- 75
2018-06-08 01:00:00 16.5 9 Nordeste 11 Nordeste 0 -- -- 72
2018-06-08 00:00:00 17.3 8 Nordeste 12 Este 0 -- -- 71
2018-06-07 23:00:00 18.3 0 Calma 10 Noroeste 0 -- -- 70
2018-06-07 22:00:00 19.3 7 Noroeste 18 Oeste 0 -- -- 63
2018-06-07 21:00:00 20.2 10 Oeste 17 Oeste 0 -- -- 62
2018-06-07 20:00:00 21.3 10 Oeste 21 Oeste 0 -- -- 54
2018-06-07 19:00:00 22.3 16 Oeste 25 Oeste 0 -- -- 50
2018-06-07 18:00:00 22.4 12 Oeste 30 Oeste 0 -- -- 47
2018-06-07 17:00:00 23.6 15 Oeste 29 Oeste 0 -- -- 41
2018-06-07 16:00:00 23 14 Oeste 27 Noroeste 0 -- -- 45
2018-06-07 15:00:00 22.5 19 Oeste 31 Oeste 0 -- -- 46
2018-06-07 14:00:00 21.1 19 Oeste 32 Oeste 0 -- -- 52
2018-06-07 13:00:00 19.9 13 Oeste 29 Oeste 0 -- -- 57
2018-06-07 12:00:00 18.4 10 Noroeste 27 Oeste 0 -- -- 59
2018-06-07 11:00:00 17.3 17 Oeste 26 Oeste 0 -- -- 69
2018-06-07 10:00:00 15.6 12 Oeste 17 Oeste 0 -- -- 78
2018-06-07 09:00:00 13.5 6 Sudoeste 11 Oeste 0 -- -- 86
2018-06-07 08:00:00 11.8 3 Oeste 6 Oeste 0 -- -- 91
2018-06-07 07:00:00 11.3 2 Este 13 Oeste 0 -- -- 90
2018-06-07 06:00:00 11.8 3 Oeste 10 Oeste 0 -- -- 93
2018-06-07 05:00:00 12.7 7 Oeste 11 Oeste 0 -- -- 95
2018-06-07 04:00:00 12.9 5 Oeste 12 Oeste 0 -- -- 95
2018-06-07 03:00:00 13.1 6 Oeste 9 Sudoeste 0 -- -- 94
2018-06-07 02:00:00 13.5 5 Oeste 8 Oeste 0 -- -- 93
2018-06-07 01:00:00 13.9 2 Oeste 10 Oeste 0 -- -- 91
2018-06-07 00:00:00 14.2 2 Noroeste 6 Nordeste 0 -- -- 90
2018-06-06 23:00:00 14.6 4 Este 8 Oeste 0 -- -- 89
2018-06-06 22:00:00 15 2 Nordeste 7 Este 0 -- -- 86
2018-06-06 21:00:00 15.5 0 Calma 10 Este 0 -- -- 82
2018-06-06 20:00:00 16 8 Este 15 Nordeste 0 -- -- 79
2018-06-06 19:00:00 15.5 7 Nordeste 21 Este 0.2 -- -- 83
2018-06-06 18:00:00 16.2 7 Nordeste 28 Este 0 -- -- 76
2018-06-06 17:00:00 17.4 6 Nordeste 20 Nordeste 0 -- -- 65
2018-06-06 16:00:00 16.5 9 Noroeste 19 Noroeste 0 -- -- 70
2018-06-06 15:00:00 17.6 10 Noroeste 30 Sudoeste 0 -- -- 64
2018-06-06 14:00:00 17.3 13 Oeste 21 Oeste 0 -- -- 67
2018-06-06 13:00:00 15.9 9 Oeste 19 Oeste 0 -- -- 71
2018-06-06 12:00:00 14.2 12 Oeste 20 Oeste 0 -- -- 82
2018-06-06 11:00:00 13.1 14 Oeste 22 Oeste 0 -- -- 88
2018-06-06 10:00:00 11.9 12 Oeste 17 Oeste 0 -- -- 93
2018-06-06 09:00:00 11.3 12 Oeste 15 Oeste 0 -- -- 94
2018-06-06 08:00:00 11.1 6 Oeste 11 Oeste 0.4 -- -- 93
2018-06-06 07:00:00 11.3 6 Oeste 10 Oeste 0.2 -- -- 91
2018-06-06 06:00:00 11.6 9 Oeste 12 Oeste 0 -- -- 90
2018-06-06 05:00:00 11.5 5 Noroeste 13 Oeste 0 -- -- 94
2018-06-06 04:00:00 11.8 10 Oeste 14 Oeste 0 -- -- 92
2018-06-06 03:00:00 12.2 11 Oeste 19 Oeste 0 -- -- 88
2018-06-06 02:00:00 12.5 4 Oeste 11 Oeste 0 -- -- 90
2018-06-06 01:00:00 12.8 8 Oeste 14 Oeste 0 -- -- 89
2018-06-06 00:00:00 13.3 7 Oeste 13 Oeste 0 -- -- 86
2018-06-05 23:00:00 13.9 8 Oeste 17 Oeste 0 -- -- 81
2018-06-05 22:00:00 15.4 10 Oeste 23 Oeste 0 -- -- 72
2018-06-05 21:00:00 16.2 16 Oeste 27 Oeste 0 -- -- 72
2018-06-05 20:00:00 18.7 15 Noroeste 27 Noroeste 0 -- -- 58
2018-06-05 19:00:00 19.4 16 Noroeste 26 Oeste 0 -- -- 49
2018-06-05 18:00:00 20.8 21 Oeste 31 Oeste 0 -- -- 45
2018-06-05 17:00:00 20.7 18 Oeste 33 Oeste 0 -- -- 47
2018-06-05 16:00:00 20.2 18 Oeste 30 Oeste 0 -- -- 49
2018-06-05 15:00:00 19.9 16 Oeste 34 Oeste 0 -- -- 50
2018-06-05 14:00:00 19.4 19 Oeste 34 Oeste 0 -- -- 52
2018-06-05 13:00:00 18.4 17 Oeste 35 Oeste 0 -- -- 57
2018-06-05 12:00:00 17.5 19 Oeste 33 Oeste 0 -- -- 63
2018-06-05 11:00:00 15.9 21 Oeste 31 Oeste 0 -- -- 71
2018-06-05 10:00:00 14.2 20 Oeste 29 Oeste 0 -- -- 83
2018-06-05 09:00:00 13.6 15 Oeste 21 Oeste 0 -- -- 83
2018-06-05 08:00:00 12.8 14 Oeste 23 Oeste 0 -- -- 84
2018-06-05 07:00:00 12.8 8 Oeste 14 Oeste 0 -- -- 92
2018-06-05 06:00:00 13.2 9 Oeste 14 Oeste 0 -- -- 91
2018-06-05 05:00:00 13.3 11 Oeste 17 Oeste 0 -- -- 89
2018-06-05 04:00:00 13.8 11 Oeste 20 Oeste 0 -- -- 87
2018-06-05 03:00:00 14 12 Oeste 19 Sudoeste 0 -- -- 87
2018-06-05 02:00:00 14.8 11 Oeste 19 Oeste 0 -- -- 85
2018-06-05 01:00:00 15.2 6 Oeste 10 Oeste 0 -- -- 83
2018-06-05 00:00:00 16.2 0 Calma 6 Este 0 -- -- 77
2018-06-04 23:00:00 17.2 0 Calma 14 Oeste 0 -- -- 71
2018-06-04 22:00:00 18.8 10 Noroeste 18 Oeste 0 -- -- 60
2018-06-04 21:00:00 19.8 8 Noroeste 19 Noroeste 0 -- -- 58
2018-06-04 20:00:00 20.7 10 Noroeste 18 Noroeste 0 -- -- 56
2018-06-04 19:00:00 22.2 14 Oeste 28 Oeste 0 -- -- 53
2018-06-04 18:00:00 22.8 17 Oeste 33 Oeste 0 -- -- 51
2018-06-04 17:00:00 22.8 16 Oeste 31 Oeste 0 -- -- 50
2018-06-04 16:00:00 22.3 17 Sudoeste 37 Oeste 0 -- -- 53
2018-06-04 15:00:00 21.9 21 Oeste 35 Oeste 0 -- -- 61
2018-06-04 14:00:00 21.3 18 Oeste 26 Oeste 0 -- -- 65
2018-06-04 13:00:00 20 12 Oeste 24 Oeste 0 -- -- 70
2018-06-04 12:00:00 19.3 12 Oeste 22 Oeste 0 -- -- 74
2018-06-04 11:00:00 18.1 16 Oeste 22 Oeste 0 -- -- 81
2018-06-04 10:00:00 17.3 12 Oeste 17 Oeste 0 -- -- 85
2018-06-04 09:00:00 16.1 7 Oeste 11 Oeste 0 -- -- 89
2018-06-04 08:00:00 14.9 0 Calma 9 Nordeste 0 -- -- 92
2018-06-04 07:00:00 14.3 5 Este 9 Nordeste 0 -- -- 91
2018-06-04 06:00:00 14.8 7 Nordeste 10 Nordeste 0 -- -- 90
2018-06-04 05:00:00 15.4 0 Calma 14 Este 0 -- -- 87
2018-06-04 04:00:00 15.3 12 Este 17 Este 0 -- -- 87
2018-06-04 03:00:00 14.6 8 Nordeste 13 Nordeste 0 -- -- 90
2018-06-04 02:00:00 14.8 8 Nordeste 15 Este 0 -- -- 90
2018-06-04 01:00:00 14.9 9 Nordeste 12 Nordeste 0 -- -- 91
2018-06-04 00:00:00 15.6 10 Nordeste 13 Nordeste 0 -- -- 92
2018-06-03 23:00:00 15.9 9 Nordeste 11 Nordeste 0 -- -- 91
2018-06-03 22:00:00 17 8 Nordeste 10 Nordeste 0 -- -- 87
2018-06-03 21:00:00 18.2 0 Calma 8 Oeste 1 -- -- 82
2018-06-03 20:00:00 19.2 4 Oeste 14 Sudeste 0 -- -- 70
2018-06-03 19:00:00 20.8 8 Sur 20 Sudeste 0 -- -- 64
2018-06-03 18:00:00 22 9 Sur 24 Este 0 -- -- 55
2018-06-03 17:00:00 21.8 14 Sudeste 27 Este 0 -- -- 60
2018-06-03 16:00:00 23.2 15 Este 29 Sudeste 0 -- -- 55
2018-06-03 15:00:00 23.7 15 Sudeste 26 Sudeste 0 -- -- 50
2018-06-03 14:00:00 22.7 14 Sudeste 27 Sur 0 -- -- 60
2018-06-03 13:00:00 21.2 12 Este 24 Este 0 -- -- 62
2018-06-03 12:00:00 21.3 10 Este 27 Este 0 -- -- 64
2018-06-03 11:00:00 20.7 14 Este 29 Este 0 -- -- 65
2018-06-03 10:00:00 19 15 Este 26 Este 0 -- -- 72
2018-06-03 09:00:00 17.4 18 Este 25 Este 0 -- -- 78
2018-06-03 08:00:00 14.9 14 Este 19 Este 0 -- -- 88
2018-06-03 07:00:00 14.3 12 Este 26 Este 0 -- -- 87
2018-06-03 06:00:00 14.4 18 Este 25 Este 0 -- -- 84
2018-06-03 05:00:00 14.3 13 Este 18 Este 0 -- -- 83
2018-06-03 04:00:00 14.8 15 Este 23 Este 0 -- -- 83
2018-06-03 03:00:00 15.3 19 Este 24 Este 0 -- -- 82
2018-06-03 02:00:00 15.6 14 Este 20 Este 0 -- -- 78
2018-06-03 01:00:00 16.6 17 Este 25 Este 0 -- -- 73
2018-06-03 00:00:00 17.4 14 Este 30 Este 0 -- -- 74
2018-06-02 23:00:00 18.3 18 Este 27 Este 0 -- -- 72
2018-06-02 22:00:00 17.9 15 Este 31 Sudeste 0 -- -- 74
2018-06-02 21:00:00 18.7 18 Este 46 Este 0 -- -- 71
2018-06-02 20:00:00 23.3 12 Este 24 Este 0 -- -- 50
2018-06-02 19:00:00 23.9 10 Este 33 Este 0 -- -- 48
2018-06-02 18:00:00 24.7 17 Sudeste 30 Este 0 -- -- 45
2018-06-02 17:00:00 23.3 13 Sudeste 27 Sudeste 0 -- -- 51
2018-06-02 16:00:00 23.3 12 Sudeste 28 Este 0 -- -- 55
2018-06-02 15:00:00 23.8 11 Sudeste 22 Este 0 -- -- 55
2018-06-02 14:00:00 24.2 11 Sudeste 21 Este 0 -- -- 52
2018-06-02 13:00:00 23.2 10 Sudeste 24 Sudeste 0 -- -- 55
2018-06-02 12:00:00 20.9 7 Oeste 19 Oeste 0 -- -- 63
2018-06-02 11:00:00 21.2 10 Este 19 Este 0 -- -- 63
2018-06-02 10:00:00 19.1 5 Este 14 Sudeste 0 -- -- 66
2018-06-02 09:00:00 15.5 0 Calma 4 Nordeste 0 -- -- 88
2018-06-02 08:00:00 14 3 Nordeste 5 Nordeste 0 -- -- 90
2018-06-02 07:00:00 13.1 4 Este 10 Este 0 -- -- 89
2018-06-02 06:00:00 14.4 4 Noroeste 15 Este 0 -- -- 84
2018-06-02 05:00:00 15.5 13 Este 33 Nordeste 0 -- -- 78
2018-06-02 04:00:00 15.5 17 Este 23 Este 0 -- -- 86
2018-06-02 03:00:00 15.7 8 Nordeste 17 Nordeste 0 -- -- 84
2018-06-02 02:00:00 16.3 6 Este 23 Nordeste 0 -- -- 88
2018-06-02 01:00:00 16.5 3 Noroeste 16 Oeste 0 -- -- 86
2018-06-02 00:00:00 17.2 10 Oeste 15 Oeste 0 -- -- 85
2018-06-01 23:00:00 19 0 Calma 11 Este 0 -- -- 74
2018-06-01 22:00:00 20 6 Noroeste 12 Noroeste 0 -- -- 71
2018-06-01 21:00:00 21.9 3 Este 11 Sur 0 -- -- 64
2018-06-01 20:00:00 23.1 4 Sur 17 Sudeste 0 -- -- 58
2018-06-01 19:00:00 24 11 Este 25 Este 0 -- -- 53
2018-06-01 18:00:00 23.9 13 Este 23 Este 0 -- -- 51
2018-06-01 17:00:00 22.9 10 Este 27 Este 0 -- -- 55
2018-06-01 16:00:00 23.2 17 Este 27 Este 0 -- -- 52
2018-06-01 15:00:00 24.9 17 Este 33 Este 0 -- -- 49
2018-06-01 14:00:00 23.6 24 Este 36 Este 0 -- -- 58
2018-06-01 13:00:00 22.9 19 Este 36 Este 0 -- -- 60
2018-06-01 12:00:00 21.8 18 Este 27 Este 0 -- -- 65
2018-06-01 11:00:00 20.8 12 Sudeste 23 Sudeste 0 -- -- 70
2018-06-01 10:00:00 19 18 Este 27 Este 0 -- -- 76
2018-06-01 09:00:00 17.4 13 Este 25 Este 0 -- -- 85
2018-06-01 08:00:00 15.6 19 Este 24 Este 0 -- -- 90
2018-06-01 07:00:00 14.6 14 Este 22 Nordeste 0 -- -- 91
2018-06-01 06:00:00 14.6 14 Este 21 Este 0 -- -- 90
2018-06-01 05:00:00 14 9 Nordeste 13 Este 0 -- -- 89
2018-06-01 04:00:00 15.4 9 Nordeste 14 Nordeste 0 -- -- 84
2018-06-01 03:00:00 15.4 4 Este 10 Nordeste 0 -- -- 83
2018-06-01 02:00:00 15.7 7 Este 11 Nordeste 0 -- -- 80
2018-06-01 01:00:00 16.7 8 Nordeste 14 Este 0 -- -- 77
2018-06-01 00:00:00 17.3 8 Nordeste 10 Nordeste 0 -- -- 72
2018-05-31 23:00:00 16.4 9 Nordeste 12 Nordeste 0 -- -- 79
2018-05-31 22:00:00 18 9 Nordeste 11 Nordeste 0 -- -- 78
2018-05-31 21:00:00 19.7 4 Nordeste 6 Norte 0 -- -- 70
2018-05-31 20:00:00 20.6 4 Oeste 6 Oeste 0 -- -- 65
2018-05-31 19:00:00 21.2 7 Oeste 14 Sudoeste 0 -- -- 57
2018-05-31 18:00:00 22.2 7 Sudoeste 14 Oeste 0 -- -- 54
2018-05-31 17:00:00 21 5 Sudoeste 14 Oeste 0 -- -- 63
2018-05-31 16:00:00 19.9 10 Oeste 20 Oeste 0 -- -- 71
2018-05-31 15:00:00 20.3 13 Oeste 23 Oeste 0 -- -- 64
2018-05-31 14:00:00 20.3 12 Oeste 23 Oeste 0 -- -- 67
2018-05-31 13:00:00 19.5 13 Oeste 22 Oeste 0 -- -- 69
2018-05-31 12:00:00 18.5 13 Oeste 22 Oeste 0 -- -- 73
2018-05-31 11:00:00 16.9 14 Oeste 19 Oeste 0 -- -- 80
2018-05-31 10:00:00 14.9 8 Oeste 14 Sudoeste 0 -- -- 93
2018-05-31 09:00:00 13.2 3 Oeste 14 Oeste 0 -- -- 98
2018-05-31 08:00:00 12.9 8 Oeste 15 Oeste 0 -- -- 97
2018-05-31 07:00:00 12.8 3 Oeste 6 Nordeste 0 -- -- 97
2018-05-31 06:00:00 12.7 4 Noroeste 8 Sudoeste 0 -- -- 97
2018-05-31 05:00:00 12.4 0 Calma 4 Noroeste 0 -- -- 97
2018-05-31 04:00:00 12 0 Calma 4 Nordeste 0 -- -- 97
2018-05-31 03:00:00 12.1 4 Este 6 Nordeste 0 -- -- 96
2018-05-31 02:00:00 12.6 3 Este 5 Nordeste 0 -- -- 95
2018-05-31 01:00:00 13.2 2 Noroeste 6 Nordeste 0 -- -- 95
2018-05-31 00:00:00 13 6 Nordeste 7 Nordeste 0 -- -- 95
2018-05-30 23:00:00 13.6 0 Calma 6 Nordeste 0 -- -- 93
2018-05-30 22:00:00 14.4 4 Oeste 11 Noroeste 0 -- -- 90
2018-05-30 21:00:00 15.3 8 Oeste 15 Oeste 0 -- -- 90
2018-05-30 20:00:00 16.6 4 Oeste 8 Nordeste 0 -- -- 77
2018-05-30 19:00:00 16.6 5 Este 14 Este 0 -- -- 80
2018-05-30 18:00:00 15.6 14 Este 27 Este 0 -- -- 83
2018-05-30 17:00:00 15.6 22 Este 34 Este 0 -- -- 85
2018-05-30 16:00:00 15.1 20 Este 30 Este 0.2 -- -- 91
2018-05-30 15:00:00 14.1 21 Este 30 Este 0.4 -- -- 89
2018-05-30 14:00:00 13.2 3 Este 16 Sudeste 10 -- -- 89
2018-05-30 13:00:00 14.6 5 Sudoeste 17 Oeste 4 -- -- 93
2018-05-30 12:00:00 15.3 14 Oeste 20 Sudoeste 1.8 -- -- 90
2018-05-30 11:00:00 16.5 8 Sudoeste 13 Sudoeste 0 -- -- 85
2018-05-30 10:00:00 15 9 Este 16 Este 0 -- -- 87
2018-05-30 09:00:00 14.3 6 Este 12 Este 0 -- -- 93
2018-05-30 08:00:00 13.1 6 Este 13 Este 0 -- -- 94
2018-05-30 07:00:00 12.7 10 Este 15 Este 0 -- -- 94
2018-05-30 06:00:00 12.6 8 Este 10 Este 0 -- -- 94
2018-05-30 05:00:00 13.1 4 Este 12 Este 0 -- -- 93
2018-05-30 04:00:00 13.3 4 Norte 11 Este 0 -- -- 91
2018-05-30 03:00:00 13.8 4 Este 10 Este 0 -- -- 86
2018-05-30 02:00:00 13.4 6 Este 14 Este 0 -- -- 92
2018-05-30 01:00:00 13.4 13 Este 21 Este 0.2 -- -- 92
2018-05-30 00:00:00 13.4 13 Nordeste 19 Nordeste 0 -- -- 90
2018-05-29 23:00:00 14.1 4 Nordeste 22 Nordeste 0 -- -- 86
2018-05-29 22:00:00 14.7 4 Sudoeste 22 Noroeste 0 -- -- 88
2018-05-29 21:00:00 14.7 11 Noroeste 37 Oeste 2.4 -- -- 87
2018-05-29 20:00:00 19.3 13 Oeste 21 Sur 0 -- -- 69
2018-05-29 19:00:00 21 10 Sur 29 Sudeste 0 -- -- 58
2018-05-29 18:00:00 21.6 15 Sudeste 28 Este 0 -- -- 58
2018-05-29 17:00:00 21.5 15 Sudeste 34 Este 0 -- -- 62
2018-05-29 16:00:00 20 9 Sudeste 21 Sudeste 0 -- -- 69
2018-05-29 15:00:00 19.3 10 Sudeste 19 Sudeste 0 -- -- 72
2018-05-29 14:00:00 20.1 13 Sudeste 26 Sudeste 0 -- -- 69
2018-05-29 13:00:00 17.9 14 Sudeste 22 Sudeste 0 -- -- 78
2018-05-29 12:00:00 17.7 11 Sudeste 21 Este 0 -- -- 81
2018-05-29 11:00:00 15.5 10 Sudeste 16 Sudeste 0 -- -- 90
2018-05-29 10:00:00 15.4 9 Este 20 Este 0 -- -- 89
2018-05-29 09:00:00 14.7 9 Este 13 Este 0 -- -- 94
2018-05-29 08:00:00 13.8 8 Este 10 Este 0 -- -- 96
2018-05-29 07:00:00 13.6 4 Este 5 Este 0 -- -- 95
2018-05-29 06:00:00 13.7 0 Calma 5 Este 0 -- -- 95
2018-05-29 05:00:00 13.8 4 Este 8 Este 0 -- -- 95
2018-05-29 04:00:00 13.8 5 Este 10 Este 0 -- -- 95
2018-05-29 03:00:00 14 4 Este 6 Nordeste 0 -- -- 95
2018-05-29 02:00:00 13.9 0 Calma 6 Sur 0 -- -- 96
2018-05-29 01:00:00 14 3 Sudoeste 9 Oeste 0 -- -- 96
2018-05-29 00:00:00 14 5 Oeste 13 Oeste 0 -- -- 96
2018-05-28 23:00:00 14.4 9 Oeste 13 Sudoeste 0 -- -- 95
2018-05-28 22:00:00 14.7 4 Noroeste 7 Noroeste 0 -- -- 90
2018-05-28 21:00:00 15.3 5 Este 24 Este 0 -- -- 86
2018-05-28 20:00:00 15.3 18 Este 25 Este 0 -- -- 88
2018-05-28 19:00:00 14.8 16 Este 26 Este 0.4 -- -- 90
2018-05-28 18:00:00 15.6 14 Este 30 Este 2 -- -- 88
2018-05-28 17:00:00 18.5 10 Noroeste 23 Oeste 0 -- -- 76
2018-05-28 16:00:00 18.4 16 Oeste 23 Noroeste 0 -- -- 79
2018-05-28 15:00:00 18 16 Oeste 24 Sudoeste 0 -- -- 78
2018-05-28 14:00:00 17.1 18 Oeste 25 Oeste 0 -- -- 82
2018-05-28 13:00:00 16.5 13 Oeste 19 Oeste 0 -- -- 84
2018-05-28 12:00:00 15.5 13 Oeste 18 Oeste 0 -- -- 90
2018-05-28 11:00:00 15 11 Oeste 14 Oeste 0 -- -- 93
2018-05-28 10:00:00 14.6 6 Oeste 10 Oeste 0 -- -- 95
2018-05-28 09:00:00 13.9 8 Oeste 10 Oeste 0.2 -- -- 95
2018-05-28 08:00:00 13.6 3 Nordeste 7 Nordeste 0.8 -- -- 96
2018-05-28 07:00:00 13.5 3 Este 9 Nordeste 2.6 -- -- 96
2018-05-28 06:00:00 13.6 3 Oeste 9 Sudeste 2.4 -- -- 96
2018-05-28 05:00:00 13.7 4 Sur 10 Noroeste 2.2 -- -- 96
2018-05-28 04:00:00 14.1 5 Oeste 12 Este 3.2 -- -- 95
2018-05-28 03:00:00 14.4 10 Este 24 Este 3.4 -- -- 93
2018-05-28 02:00:00 14.6 6 Oeste 11 Noroeste 0 -- -- 91
2018-05-28 01:00:00 14.5 8 Noroeste 20 Oeste 0 -- -- 92
2018-05-28 00:00:00 15.2 13 Oeste 20 Oeste 0 -- -- 89
2018-05-27 23:00:00 16.8 12 Noroeste 28 Noroeste 0 -- -- 82
2018-05-27 22:00:00 18.2 3 Este 15 Oeste 0 -- -- 81
2018-05-27 21:00:00 19.3 6 Este 11 Este 0 -- -- 79
2018-05-27 20:00:00 20.6 6 Este 15 Este 0 -- -- 73
2018-05-27 19:00:00 22.6 16 Nordeste 30 Nordeste 0 -- -- 54
2018-05-27 18:00:00 25 10 Noroeste 21 Noroeste 0 -- -- 52
2018-05-27 17:00:00 23.9 6 Noroeste 24 Oeste 0 -- -- 52
2018-05-27 16:00:00 25 12 Oeste 27 Oeste 0 -- -- 53
2018-05-27 15:00:00 23.1 19 Oeste 36 Oeste 0 -- -- 60
2018-05-27 14:00:00 23.5 13 Sudoeste 21 Sudoeste 0 -- -- 62
2018-05-27 13:00:00 22.1 11 Oeste 21 Oeste 0 -- -- 64
2018-05-27 12:00:00 20.8 13 Oeste 21 Oeste 0 -- -- 72
2018-05-27 11:00:00 19.4 14 Oeste 22 Oeste 0 -- -- 77
2018-05-27 10:00:00 17.6 4 Sudoeste 8 Sur 0 -- -- 87
2018-05-27 09:00:00 14.9 4 Sudoeste 7 Sudoeste 0 -- -- 95
2018-05-27 08:00:00 13.9 3 Nordeste 5 Nordeste 0 -- -- 95
2018-05-27 07:00:00 13.5 4 Este 6 Nordeste 0 -- -- 94
2018-05-27 06:00:00 14.2 3 Este 9 Noroeste 0 -- -- 91
2018-05-27 05:00:00 14.9 0 Calma 17 Este 0 -- -- 91
2018-05-27 04:00:00 15.1 11 Este 13 Este 0 -- -- 90
2018-05-27 03:00:00 15.6 8 Este 21 Este 0 -- -- 87
2018-05-27 02:00:00 16.4 13 Este 18 Nordeste 0 -- -- 85
2018-05-27 01:00:00 17.1 8 Este 14 Este 0 -- -- 83
2018-05-27 00:00:00 17.3 4 Este 8 Noroeste 0 -- -- 84
2018-05-26 23:00:00 17.4 2 Norte 20 Este 0 -- -- 83
2018-05-26 22:00:00 17.3 17 Este 30 Este 0 -- -- 84
2018-05-26 21:00:00 18.1 14 Este 28 Este 0 -- -- 80
2018-05-26 20:00:00 19 24 Este 31 Este 0 -- -- 76
2018-05-26 19:00:00 20.1 20 Este 45 Este 0 -- -- 70
2018-05-26 18:00:00 22 27 Este 45 Este 0 -- -- 65
2018-05-26 17:00:00 20.9 35 Este 48 Este 0 -- -- 69
2018-05-26 16:00:00 22 24 Este 35 Este 0 -- -- 65
2018-05-26 15:00:00 20.6 10 Nordeste 18 Nordeste 0 -- -- 75
2018-05-26 14:00:00 19.6 10 Nordeste 17 Nordeste 0 -- -- 77
2018-05-26 13:00:00 18.2 9 Noroeste 28 Sudeste 0 -- -- 85
2018-05-26 12:00:00 19.6 12 Sur 40 Sudeste 0 -- -- 74
2018-05-26 11:00:00 17.8 28 Sudeste 43 Sudeste 0 -- -- 84
2018-05-26 10:00:00 15.5 16 Este 42 Este 0 -- -- 92
2018-05-26 09:00:00 14.6 26 Este 38 Este 0.6 -- -- 95
2018-05-26 08:00:00 14.2 24 Este 38 Este 0.4 -- -- 94
2018-05-26 07:00:00 14.9 16 Este 30 Este 0 -- -- 88
2018-05-26 06:00:00 15.1 21 Este 28 Este 0 -- -- 88
2018-05-26 05:00:00 15 14 Este 32 Este 0 -- -- 89
2018-05-26 04:00:00 15.1 27 Este 40 Este 0 -- -- 87
2018-05-26 03:00:00 15.2 23 Este 33 Este 0 -- -- 86
2018-05-26 02:00:00 15.5 19 Este 27 Este 0 -- -- 83
2018-05-26 01:00:00 16.2 10 Sudeste 32 Sudeste 0 -- -- 79
2018-05-26 00:00:00 16.8 14 Sudeste 43 Sudeste 0 -- -- 75
2018-05-25 23:00:00 17.2 16 Este 27 Este 0 -- -- 70
2018-05-25 22:00:00 18.5 13 Este 28 Este 0 -- -- 64
2018-05-25 21:00:00 20.1 18 Este 46 Este 0 -- -- 60
2018-05-25 20:00:00 22 22 Sudeste 37 Este 0 -- -- 52
2018-05-25 19:00:00 22.5 23 Este 50 Este 0 -- -- 49
2018-05-25 18:00:00 23.6 32 Este 46 Este 0 -- -- 45
2018-05-25 17:00:00 22.9 23 Este 41 Este 0 -- -- 47
2018-05-25 16:00:00 23.3 22 Este 47 Este 0 -- -- 45
2018-05-25 15:00:00 22.8 27 Este 49 Este 0 -- -- 47
2018-05-25 14:00:00 22.6 26 Sudeste 46 Este 0 -- -- 48
2018-05-25 13:00:00 21.5 28 Este 44 Este 0 -- -- 54
2018-05-25 12:00:00 19.9 16 Este 29 Este 0 -- -- 65
2018-05-25 11:00:00 16.3 4 Oeste 9 Oeste 0 -- -- 81
2018-05-25 10:00:00 14.1 6 Oeste 23 Este 0.2 -- -- 86
2018-05-25 09:00:00 13.8 18 Este 43 Nordeste 0.6 -- -- 85
2018-05-25 08:00:00 13.5 8 Nordeste 27 Nordeste 1.8 -- -- 82
2018-05-25 07:00:00 14.4 16 Este 27 Este 0.2 -- -- 77
2018-05-25 06:00:00 15 10 Nordeste 18 Nordeste 0 -- -- 71
2018-05-25 05:00:00 15.8 12 Oeste 36 Este 0 -- -- 63
2018-05-25 04:00:00 15.9 22 Este 31 Este 0 -- -- 61
2018-05-25 03:00:00 16.9 31 Este 55 Este 0 -- -- 55
2018-05-25 02:00:00 16.4 36 Este 50 Este 0 -- -- 60
2018-05-25 01:00:00 17.3 32 Este 44 Este 0 -- -- 57
2018-05-25 00:00:00 18.4 28 Este 42 Este 0 -- -- 59
2018-05-24 23:00:00 19.9 22 Este 29 Este 0 -- -- 56
2018-05-24 22:00:00 20.7 14 Este 30 Este 0 -- -- 58
2018-05-24 21:00:00 22.2 19 Nordeste 30 Nordeste 0 -- -- 53
2018-05-24 20:00:00 22.3 17 Nordeste 23 Nordeste 0 -- -- 55
2018-05-24 19:00:00 22.6 15 Este 25 Nordeste 0 -- -- 53
2018-05-24 18:00:00 22.5 10 Nordeste 29 Este 0 -- -- 56
2018-05-24 17:00:00 23.6 19 Este 27 Este 0 -- -- 57
2018-05-24 16:00:00 25.2 17 Este 29 Este 0 -- -- 53
2018-05-24 15:00:00 24.9 10 Este 25 Este 0 -- -- 52
2018-05-24 14:00:00 23.4 8 Este -- -- -- -- -- 59
2018-05-24 13:00:00 22.9 9 Este 24 Este 0 -- -- 61
2018-05-24 12:00:00 21.6 14 Sudeste 30 Este 0 -- -- 62
2018-05-24 11:00:00 19.9 22 Este 29 Este 0 -- -- 69
2018-05-24 10:00:00 19 12 Este 29 Este 0 -- -- 77
2018-05-24 09:00:00 16.8 19 Este 27 Este 0 -- -- 83
2018-05-24 08:00:00 15.2 14 Este 26 Nordeste 0 -- -- 87
2018-05-24 07:00:00 15 12 Este 22 Este 0 -- -- 88
2018-05-24 06:00:00 15.4 17 Este 23 Este 0 -- -- 84
2018-05-24 05:00:00 15.2 15 Este 24 Nordeste 0.2 -- -- 88
2018-05-24 04:00:00 15 6 Nordeste 15 Nordeste 0.2 -- -- 89
2018-05-24 03:00:00 15.3 6 Nordeste 13 Este 0 -- -- 85
2018-05-24 02:00:00 15.4 4 Este 29 Este 0 -- -- 84
2018-05-24 01:00:00 15.1 18 Este 25 Este 0 -- -- 87
2018-05-24 00:00:00 16 15 Este 30 Este 0 -- -- 81
2018-05-23 23:00:00 16.2 15 Este 26 Nordeste 0 -- -- 81
2018-05-23 22:00:00 17.1 11 Nordeste 18 Este 0 -- -- 75
2018-05-23 21:00:00 17.2 11 Este 17 Este 0 -- -- 82
2018-05-23 20:00:00 17.7 9 Sudeste 14 Este 0.2 -- -- 83
2018-05-23 19:00:00 17.7 13 Oeste 19 Sudoeste 0 -- -- 79
2018-05-23 18:00:00 21.8 12 Noroeste 27 Noroeste 0 -- -- 56
2018-05-23 17:00:00 25.6 5 Sur 14 Este 0 -- -- 44
2018-05-23 16:00:00 25 6 Este 18 Este 0 -- -- 46
2018-05-23 15:00:00 23.3 6 Sur 16 Sur 0 -- -- 45
2018-05-23 14:00:00 20.5 11 Oeste 18 Sudeste 0 -- -- 66
2018-05-23 13:00:00 22.2 10 Sudeste 17 Este 0 -- -- 51
2018-05-23 12:00:00 21.3 9 Sudeste 19 Sudeste 0 -- -- 56
2018-05-23 11:00:00 20.3 11 Este 17 Este 0 -- -- 63
2018-05-23 10:00:00 18.4 10 Este 16 Este 0 -- -- 72
2018-05-23 09:00:00 15.8 9 Este 11 Este 0 -- -- 82
2018-05-23 08:00:00 13.7 6 Nordeste 9 Nordeste 0 -- -- 82
2018-05-23 07:00:00 11.9 6 Nordeste 13 Nordeste 0 -- -- 88
2018-05-23 06:00:00 12.1 9 Nordeste 14 Nordeste 0 -- -- 85
2018-05-23 05:00:00 11.2 9 Nordeste 13 Nordeste 0 -- -- 82
2018-05-23 04:00:00 11.7 10 Nordeste 13 Nordeste 0 -- -- 80
2018-05-23 03:00:00 13.1 7 Nordeste 9 Nordeste 0 -- -- 74
2018-05-23 02:00:00 13.9 2 Norte 18 Este 0 -- -- 70
2018-05-23 01:00:00 13.4 12 Este 16 Este 0 -- -- 71
2018-05-23 00:00:00 14.2 8 Este 13 Este 0 -- -- 70
2018-05-22 23:00:00 15.1 7 Nordeste 11 Nordeste 0 -- -- 63
2018-05-22 22:00:00 18.7 3 Sudoeste 15 Noroeste 0 -- -- 51
2018-05-22 21:00:00 21.5 8 Noroeste 19 Oeste 0 -- -- 40
2018-05-22 20:00:00 22.9 12 Noroeste 30 Noroeste 0 -- -- 32
2018-05-22 19:00:00 23.5 15 Oeste 27 Noroeste 0 -- -- 29
2018-05-22 18:00:00 23.4 12 Noroeste 33 Oeste 0 -- -- 30
2018-05-22 17:00:00 23 14 Oeste 33 Oeste 0 -- -- 38
2018-05-22 16:00:00 22.4 17 Oeste 29 Oeste 0 -- -- 41
2018-05-22 15:00:00 21.9 19 Oeste 29 Noroeste 0 -- -- 46
2018-05-22 14:00:00 20.9 15 Oeste 25 Oeste 0 -- -- 58
2018-05-22 13:00:00 19.6 18 Oeste 28 Oeste 0 -- -- 66
2018-05-22 12:00:00 18.3 19 Oeste 27 Sudoeste 0 -- -- 70
2018-05-22 11:00:00 16.6 19 Oeste 25 Oeste 0 -- -- 78
2018-05-22 10:00:00 15 17 Oeste 21 Oeste 0 -- -- 82
2018-05-22 09:00:00 12.9 9 Oeste 12 Oeste 0 -- -- 90
2018-05-22 08:00:00 11.2 6 Oeste 9 Noroeste 0 -- -- 93
2018-05-22 07:00:00 9.9 2 Este 11 Nordeste 0 -- -- 93
2018-05-22 06:00:00 10.6 9 Nordeste 13 Nordeste 0 -- -- 92
2018-05-22 05:00:00 11.7 8 Nordeste 11 Nordeste 0 -- -- 91
2018-05-22 04:00:00 12 9 Nordeste 10 Nordeste 0 -- -- 89
2018-05-22 03:00:00 13.6 9 Nordeste 13 Nordeste 0 -- -- 86
2018-05-22 02:00:00 13.3 8 Este 18 Nordeste 0 -- -- 87
2018-05-22 01:00:00 12.9 11 Nordeste 17 Este 0 -- -- 85
2018-05-22 00:00:00 13.3 9 Este 16 Este 0 -- -- 81